createdAt,value
2023-07-08T00:01:28.559Z,101363.34
2023-07-08T00:04:00.874Z,101365.59
2023-07-08T00:06:32.320Z,101371.47
2023-07-08T00:09:06.562Z,101369.69
2023-07-08T00:11:37.303Z,101364.38
2023-07-08T00:14:16.587Z,101365.94
2023-07-08T00:16:47.514Z,101357.94
2023-07-08T00:19:20.519Z,101361.94
2023-07-08T00:21:53.635Z,101356.59
2023-07-08T00:24:27.022Z,101344.19
2023-07-08T00:26:57.713Z,101352.84
2023-07-08T00:29:30.186Z,101353.38
2023-07-08T00:32:00.851Z,101357.28
2023-07-08T00:34:31.517Z,101350.28
2023-07-08T00:37:06.446Z,101348.63
2023-07-08T00:39:41.975Z,101341.41
2023-07-08T00:42:24.050Z,101353.25
2023-07-08T00:44:54.795Z,101348.72
2023-07-08T00:47:26.629Z,101342.59
2023-07-08T00:50:03.131Z,101346.50
2023-07-08T00:52:34.032Z,101336.63
2023-07-08T00:55:12.576Z,101347.31
2023-07-08T00:57:46.558Z,101343.66
2023-07-08T01:00:19.680Z,101344.50
2023-07-08T01:02:59.722Z,101345.03
2023-07-08T01:05:35.937Z,101334.28
2023-07-08T01:08:09.780Z,101333.59
2023-07-08T01:10:47.533Z,101326.47
2023-07-08T01:13:20.777Z,101321.59
2023-07-08T01:15:53.614Z,101326.22
2023-07-08T01:18:26.691Z,101321.53
2023-07-08T01:20:59.082Z,101318.88
2023-07-08T01:23:32.626Z,101312.91
2023-07-08T01:26:05.235Z,101317.78
2023-07-08T01:28:39.562Z,101292.69
2023-07-08T01:31:10.520Z,101300.22
2023-07-08T01:33:41.441Z,101308.75
2023-07-08T01:36:14.027Z,101307.88
2023-07-08T01:38:51.708Z,101300.44
2023-07-08T01:41:24.990Z,101303.09
2023-07-08T01:43:57.241Z,101283.28
2023-07-08T01:46:31.211Z,101310.72
2023-07-08T01:49:23.344Z,101301.44
2023-07-08T01:52:07.311Z,101296.19
2023-07-08T01:54:40.646Z,101296.88
2023-07-08T01:57:11.581Z,101299.31
2023-07-08T01:59:42.342Z,101299.84
2023-07-08T02:02:19.906Z,101287.25
2023-07-08T02:04:51.435Z,101294.22
2023-07-08T02:07:22.547Z,101270.16
2023-07-08T02:09:55.825Z,101292.09
2023-07-08T02:12:26.760Z,101293.53
2023-07-08T02:14:57.748Z,101289.59
2023-07-08T02:17:37.291Z,101260.97
2023-07-08T02:20:12.373Z,101255.38
2023-07-08T02:22:43.145Z,101276.09
2023-07-08T02:25:17.437Z,101271.53
2023-07-08T02:27:49.218Z,101282.63
2023-07-08T02:30:20.323Z,101274.50
2023-07-08T02:32:58.189Z,101286.31
2023-07-08T02:35:31.292Z,101287.75
2023-07-08T02:38:04.375Z,101274.19
2023-07-08T02:40:41.737Z,101283.56
2023-07-08T02:43:14.712Z,101284.34
2023-07-08T02:45:47.956Z,101260.38
2023-07-08T02:48:18.991Z,101284.34
2023-07-08T02:50:49.974Z,101285.09
2023-07-08T02:53:20.704Z,101281.31
2023-07-08T02:55:54.178Z,101276.97
2023-07-08T02:58:24.921Z,101278.50
2023-07-08T03:00:56.260Z,101279.19
2023-07-08T03:03:30.518Z,101279.94
2023-07-08T03:06:03.813Z,101275.75
2023-07-08T03:08:35.043Z,101276.53
2023-07-08T03:11:10.853Z,101263.56
2023-07-08T03:13:41.802Z,101270.94
2023-07-08T03:16:14.131Z,101269.16
2023-07-08T03:18:52.383Z,101281.97
2023-07-08T03:21:24.555Z,101277.78
2023-07-08T03:23:56.238Z,101276.03
2023-07-08T03:26:32.502Z,101273.38
2023-07-08T03:29:06.880Z,101275.00
2023-07-08T03:31:37.973Z,101257.50
2023-07-08T03:34:09.103Z,101271.59
2023-07-08T03:36:49.810Z,101283.03
2023-07-08T03:39:26.746Z,101272.72
2023-07-08T03:42:00.345Z,101270.97
2023-07-08T03:44:31.050Z,101273.00
2023-07-08T03:47:02.877Z,101276.03
2023-07-08T03:49:42.521Z,101288.75
2023-07-08T03:52:18.770Z,101276.25
2023-07-08T03:54:50.206Z,101283.97
2023-07-08T03:57:24.504Z,101288.66
2023-07-08T03:59:58.292Z,101276.22
2023-07-08T04:02:29.669Z,101294.25
2023-07-08T04:05:00.695Z,101295.94
2023-07-08T04:07:31.628Z,101283.97
2023-07-08T04:10:02.388Z,101261.78
2023-07-08T04:12:36.199Z,101278.78
2023-07-08T04:15:08.187Z,101284.22
2023-07-08T04:17:40.188Z,101282.03
2023-07-08T04:20:14.365Z,101285.19
2023-07-08T04:22:45.381Z,101289.88
2023-07-08T04:25:19.379Z,101288.34
2023-07-08T04:27:53.220Z,101292.59
2023-07-08T04:30:27.655Z,101285.56
2023-07-08T04:32:58.685Z,101290.41
2023-07-08T04:35:30.206Z,101295.06
2023-07-08T04:38:01.132Z,101294.53
2023-07-08T04:40:32.268Z,101295.41
2023-07-08T04:43:07.375Z,101273.22
2023-07-08T04:45:38.477Z,101295.56
2023-07-08T04:48:14.144Z,101292.34
2023-07-08T04:50:45.502Z,101295.25
2023-07-08T04:53:17.026Z,101295.25
2023-07-08T04:55:52.419Z,101293.44
2023-07-08T04:58:28.906Z,101292.44
2023-07-08T05:01:00.238Z,101293.16
2023-07-08T05:03:31.277Z,101271.09
2023-07-08T05:06:02.048Z,101288.28
2023-07-08T05:08:33.133Z,101297.72
2023-07-08T05:11:03.999Z,101291.91
2023-07-08T05:13:37.485Z,101292.94
2023-07-08T05:16:09.153Z,101289.97
2023-07-08T05:18:40.278Z,101290.47
2023-07-08T05:21:11.495Z,101303.25
2023-07-08T05:23:42.794Z,101289.78
2023-07-08T05:26:13.945Z,101287.53
2023-07-08T05:28:47.506Z,101287.41
2023-07-08T05:31:18.453Z,101289.91
2023-07-08T05:33:49.817Z,101279.84
2023-07-08T05:36:21.358Z,101287.81
2023-07-08T05:38:52.427Z,101295.25
2023-07-08T05:41:24.693Z,101291.06
2023-07-08T05:43:58.024Z,101289.00
2023-07-08T05:46:28.969Z,101287.00
2023-07-08T05:49:01.820Z,101282.91
2023-07-08T05:51:33.557Z,101278.38
2023-07-08T05:54:04.575Z,101285.19
2023-07-08T05:56:35.861Z,101279.56
2023-07-08T05:59:09.292Z,101276.41
2023-07-08T06:01:40.250Z,101252.47
2023-07-08T06:04:11.301Z,101271.44
2023-07-08T06:06:42.196Z,101277.63
2023-07-08T06:09:13.824Z,101273.69
2023-07-08T06:11:44.884Z,101281.34
2023-07-08T06:14:20.965Z,101271.91
2023-07-08T06:16:51.978Z,101275.16
2023-07-08T06:19:22.725Z,101253.22
2023-07-08T06:21:53.579Z,101270.09
2023-07-08T06:24:24.402Z,101281.72
2023-07-08T06:29:31.945Z,101280.25
2023-07-08T06:32:02.761Z,101277.84
2023-07-08T06:34:33.501Z,101274.91
2023-07-08T06:37:04.293Z,101269.63
2023-07-08T06:39:35.828Z,101274.44
2023-07-08T06:42:07.387Z,101277.53
2023-07-08T06:44:40.864Z,101281.91
2023-07-08T06:47:11.522Z,101285.31
2023-07-08T06:49:42.254Z,101285.44
2023-07-08T06:52:13.066Z,101273.53
2023-07-08T06:54:43.930Z,101280.41
2023-07-08T06:57:14.735Z,101246.13
2023-07-08T06:59:49.390Z,101284.13
2023-07-08T07:02:20.785Z,101293.19
2023-07-08T07:04:58.340Z,101284.91
2023-07-08T07:07:30.908Z,101272.25
2023-07-08T07:10:07.535Z,101288.25
2023-07-08T07:12:38.409Z,101281.13
2023-07-08T07:15:12.728Z,101282.91
2023-07-08T07:17:44.127Z,101279.09
2023-07-08T07:20:16.138Z,101271.66
2023-07-08T07:22:46.791Z,101279.28
2023-07-08T07:25:17.528Z,101278.97
2023-07-08T07:27:48.329Z,101280.72
2023-07-08T07:30:21.743Z,101280.09
2023-07-08T07:32:52.714Z,101278.13
2023-07-08T07:35:23.459Z,101278.47
2023-07-08T07:37:54.219Z,101269.25
2023-07-08T07:40:25.232Z,101288.34
2023-07-08T07:42:56.083Z,101277.28
2023-07-08T07:45:29.417Z,101274.41
2023-07-08T07:48:00.293Z,101284.03
2023-07-08T07:50:31.208Z,101278.56
2023-07-08T07:53:01.975Z,101274.94
2023-07-08T07:58:51.681Z,101273.50
2023-07-08T08:01:26.102Z,101272.38
2023-07-08T08:03:56.928Z,101280.56
2023-07-08T08:06:27.857Z,101279.53
2023-07-08T08:08:59.043Z,101269.97
2023-07-08T08:11:29.857Z,101274.84
2023-07-08T08:14:01.465Z,101256.13
2023-07-08T08:16:35.173Z,101268.06
2023-07-08T08:19:08.645Z,101264.50
2023-07-08T08:21:40.068Z,101267.56
2023-07-08T08:24:10.748Z,101272.44
2023-07-08T08:26:41.454Z,101274.22
2023-07-08T08:29:12.067Z,101256.84
2023-07-08T08:31:45.432Z,101272.81
2023-07-08T08:34:16.129Z,101282.53
2023-07-08T08:36:46.938Z,101282.19
2023-07-08T08:39:17.809Z,101277.47
2023-07-08T08:41:48.531Z,101274.81
2023-07-08T08:44:29.319Z,101275.09
2023-07-08T08:47:11.282Z,101263.28
2023-07-08T08:49:46.564Z,101276.81
2023-07-08T08:53:58.280Z,101276.81
2023-07-08T08:56:32.630Z,101280.75
2023-07-08T08:59:09.359Z,101275.16
2023-07-08T09:01:40.101Z,101262.88
2023-07-08T09:04:25.940Z,101273.00
2023-07-08T09:07:04.315Z,101269.13
2023-07-08T09:09:52.096Z,101273.78
2023-07-08T09:12:27.575Z,101265.63
2023-07-08T09:15:17.388Z,101272.06
2023-07-08T09:17:48.629Z,101242.38
2023-07-08T09:20:29.638Z,101226.88
2023-07-08T09:23:07.535Z,101259.72
2023-07-08T09:25:47.173Z,101254.69
2023-07-08T09:28:18.978Z,101241.97
2023-07-08T09:30:53.227Z,101255.22
2023-07-08T09:33:24.016Z,101249.69
2023-07-08T09:35:54.672Z,101256.09
2023-07-08T09:38:26.565Z,101246.06
2023-07-08T09:41:00.392Z,101237.50
2023-07-08T09:43:37.895Z,101251.34
2023-07-08T09:46:09.111Z,101247.50
2023-07-08T09:48:40.846Z,101234.78
2023-07-08T09:51:12.828Z,101227.06
2023-07-08T09:53:43.589Z,101254.53
2023-07-08T09:56:17.658Z,101257.50
2023-07-08T09:58:50.559Z,101249.44
2023-07-08T10:01:27.366Z,101255.97
2023-07-08T10:04:02.735Z,101258.31
2023-07-08T10:06:36.784Z,101255.06
2023-07-08T10:09:20.116Z,101247.78
2023-07-08T10:12:12.276Z,101245.28
2023-07-08T10:14:51.136Z,101240.50
2023-07-08T10:17:24.072Z,101243.41
2023-07-08T10:19:55.437Z,101237.28
2023-07-08T10:22:37.509Z,101237.19
2023-07-08T10:25:28.779Z,101250.44
2023-07-08T10:28:25.593Z,101245.50
2023-07-08T10:31:11.719Z,101243.13
2023-07-08T10:34:06.260Z,101238.22
2023-07-08T10:37:01.552Z,101235.91
2023-07-08T10:40:09.176Z,101238.09
2023-07-08T10:42:59.474Z,101245.53
2023-07-08T10:45:37.720Z,101244.38
2023-07-08T10:48:27.840Z,101230.53
2023-07-08T10:51:13.768Z,101230.88
2023-07-08T10:54:12.858Z,101244.03
2023-07-08T10:56:57.159Z,101234.81
2023-07-08T10:59:49.468Z,101234.25
2023-07-08T11:03:02.295Z,101238.19
2023-07-08T11:05:47.199Z,101236.63
2023-07-08T11:08:25.892Z,101231.69
2023-07-08T11:11:16.210Z,101235.09
2023-07-08T11:13:54.461Z,101226.56
2023-07-08T11:16:30.516Z,101228.31
2023-07-08T11:19:09.094Z,101224.41
2023-07-08T11:21:48.518Z,101222.84
2023-07-08T11:24:39.031Z,101216.84
2023-07-08T11:27:20.482Z,101215.16
2023-07-08T11:29:54.261Z,101216.28
2023-07-08T11:32:30.194Z,101202.47
2023-07-08T11:35:04.600Z,101209.47
2023-07-08T11:37:42.517Z,101205.31
2023-07-08T11:40:28.345Z,101205.94
2023-07-08T11:43:09.582Z,101192.03
2023-07-08T11:45:43.092Z,101199.22
2023-07-08T11:48:21.876Z,101177.41
2023-07-08T11:50:56.538Z,101188.97
2023-07-08T11:53:53.355Z,101187.47
2023-07-08T11:56:27.145Z,101182.53
2023-07-08T11:59:19.261Z,101193.16
2023-07-08T12:01:59.636Z,101189.69
2023-07-08T12:04:36.670Z,101165.94
2023-07-08T12:07:14.287Z,101190.78
2023-07-08T12:09:53.147Z,101186.28
2023-07-08T12:12:33.707Z,101188.75
2023-07-08T12:15:18.399Z,101183.41
2023-07-08T12:17:50.386Z,101179.09
2023-07-08T12:20:25.295Z,101179.16
2023-07-08T12:22:58.288Z,101177.78
2023-07-08T12:25:42.305Z,101184.22
2023-07-08T12:28:34.892Z,101180.69
2023-07-08T12:31:08.014Z,101170.16
2023-07-08T12:34:20.541Z,101174.59
2023-07-08T12:36:51.954Z,101179.19
2023-07-08T12:39:26.651Z,101173.81
2023-07-08T12:42:20.809Z,101167.00
2023-07-08T12:44:51.558Z,101173.34
2023-07-08T12:47:24.802Z,101173.50
2023-07-08T12:49:55.510Z,101164.47
2023-07-08T12:52:27.620Z,101165.25
2023-07-08T12:54:58.514Z,101165.31
2023-07-08T12:57:39.282Z,101162.19
2023-07-08T13:00:17.014Z,101169.03
2023-07-08T13:02:51.657Z,101169.97
2023-07-08T13:05:22.640Z,101154.25
2023-07-08T13:07:55.959Z,101162.72
2023-07-08T13:10:28.543Z,101163.72
2023-07-08T13:13:08.531Z,101153.25
2023-07-08T13:15:43.673Z,101162.63
2023-07-08T13:18:24.542Z,101162.75
2023-07-08T13:20:57.571Z,101161.34
2023-07-08T13:23:30.146Z,101154.63
2023-07-08T13:26:03.606Z,101152.97
2023-07-08T13:28:40.871Z,101154.03
2023-07-08T13:31:24.500Z,101141.22
2023-07-08T13:33:59.081Z,101155.81
2023-07-08T13:36:40.376Z,101147.44
2023-07-08T13:39:13.581Z,101138.41
2023-07-08T13:41:47.211Z,101141.13
2023-07-08T13:44:21.291Z,101138.63
2023-07-08T13:46:57.535Z,101140.50
2023-07-08T13:49:31.630Z,101129.19
2023-07-08T13:52:11.287Z,101135.28
2023-07-08T13:54:56.525Z,101128.59
2023-07-08T13:57:36.993Z,101145.56
2023-07-08T14:00:11.998Z,101145.28
2023-07-08T14:02:48.777Z,101145.94
2023-07-08T14:05:22.760Z,101142.53
2023-07-08T14:07:58.471Z,101138.84
2023-07-08T14:10:56.989Z,101140.53
2023-07-08T14:13:29.379Z,101137.25
2023-07-08T14:16:03.069Z,101138.09
2023-07-08T14:18:33.895Z,101128.59
2023-07-08T14:21:04.635Z,101128.34
2023-07-08T14:23:35.275Z,101125.88
2023-07-08T14:26:06.002Z,101136.69
2023-07-08T14:28:41.544Z,101127.28
2023-07-08T14:31:21.361Z,101131.84
2023-07-08T14:33:58.811Z,101120.78
2023-07-08T14:36:36.873Z,101124.25
2023-07-08T14:39:18.258Z,101129.47
2023-07-08T14:41:52.720Z,101128.44
2023-07-08T14:44:29.083Z,101126.63
2023-07-08T14:47:02.359Z,101126.41
2023-07-08T14:49:34.828Z,101101.69
2023-07-08T14:52:05.753Z,101127.84
2023-07-08T14:54:36.711Z,101123.69
2023-07-08T14:57:19.894Z,101126.34
2023-07-08T14:59:50.770Z,101134.94
2023-07-08T15:02:26.985Z,101133.16
2023-07-08T15:04:57.619Z,101134.06
2023-07-08T15:07:28.210Z,101138.41
2023-07-08T15:09:59.767Z,101133.19
2023-07-08T15:12:33.308Z,101134.09
2023-07-08T15:15:04.366Z,101129.50
2023-07-08T15:17:47.904Z,101104.63
2023-07-08T15:20:20.176Z,101121.44
2023-07-08T15:22:53.133Z,101126.75
2023-07-08T15:25:25.808Z,101133.94
2023-07-08T15:27:57.853Z,101129.66
2023-07-08T15:30:32.135Z,101130.34
2023-07-08T15:33:05.813Z,101128.47
2023-07-08T15:35:36.878Z,101120.63
2023-07-08T15:38:07.687Z,101126.63
2023-07-08T15:40:40.614Z,101124.81
2023-07-08T15:43:18.296Z,101118.66
2023-07-08T15:45:49.378Z,101123.09
2023-07-08T15:48:24.410Z,101124.94
2023-07-08T15:50:55.127Z,101123.22
2023-07-08T15:53:26.898Z,101125.00
2023-07-08T15:56:00.617Z,101124.91
2023-07-08T15:58:34.244Z,101133.53
2023-07-08T16:01:06.524Z,101118.78
2023-07-08T16:03:40.967Z,101124.00
2023-07-08T16:06:13.001Z,101129.09
2023-07-08T16:08:43.860Z,101129.88
2023-07-08T16:11:17.438Z,101126.38
2023-07-08T16:13:51.050Z,101136.03
2023-07-08T16:16:22.104Z,101130.13
2023-07-08T16:18:55.472Z,101125.72
2023-07-08T16:21:29.401Z,101130.81
2023-07-08T16:24:02.222Z,101124.69
2023-07-08T16:26:33.891Z,101125.28
2023-07-08T16:29:04.828Z,101118.84
2023-07-08T16:31:35.838Z,101124.06
2023-07-08T16:34:11.794Z,101120.59
2023-07-08T16:36:43.030Z,101122.34
2023-07-08T16:39:16.392Z,101121.44
2023-07-08T16:41:53.313Z,101123.13
2023-07-08T16:44:25.140Z,101124.06
2023-07-08T16:46:59.652Z,101125.81
2023-07-08T16:49:34.624Z,101126.69
2023-07-08T16:52:12.489Z,101120.53
2023-07-08T16:54:45.104Z,101090.59
2023-07-08T16:57:16.460Z,101100.94
2023-07-08T16:59:47.133Z,101119.34
2023-07-08T17:02:20.103Z,101098.22
2023-07-08T17:04:57.260Z,101114.81
2023-07-08T17:07:30.984Z,101117.28
2023-07-08T17:10:01.777Z,101124.16
2023-07-08T17:12:34.732Z,101120.63
2023-07-08T17:15:05.797Z,101086.22
2023-07-08T17:17:36.857Z,101110.88
2023-07-08T17:20:21.480Z,101107.31
2023-07-08T17:22:52.449Z,101114.22
2023-07-08T17:25:25.620Z,101099.44
2023-07-08T17:27:58.892Z,101108.00
2023-07-08T17:30:29.646Z,101100.00
2023-07-08T17:33:01.540Z,101107.78
2023-07-08T17:35:37.087Z,101105.97
2023-07-08T17:38:13.463Z,101100.69
2023-07-08T17:40:46.245Z,101085.66
2023-07-08T17:43:19.588Z,101094.41
2023-07-08T17:45:51.858Z,101095.16
2023-07-08T17:48:27.347Z,101098.56
2023-07-08T17:51:00.714Z,101092.41
2023-07-08T17:53:31.357Z,101086.16
2023-07-08T17:56:04.135Z,101091.25
2023-07-08T17:58:38.925Z,101092.81
2023-07-08T18:01:14.706Z,101093.50
2023-07-08T18:03:49.318Z,101097.75
2023-07-08T18:06:23.732Z,101095.00
2023-07-08T18:08:54.958Z,101087.09
2023-07-08T18:11:28.442Z,101076.50
2023-07-08T18:14:00.343Z,101089.56
2023-07-08T18:16:31.224Z,101095.47
2023-07-08T18:19:02.926Z,101091.03
2023-07-08T18:21:36.328Z,101087.38
2023-07-08T18:24:12.658Z,101087.25
2023-07-08T18:26:45.119Z,101085.38
2023-07-08T18:29:16.452Z,101088.72
2023-07-08T18:31:48.125Z,101084.09
2023-07-08T18:34:19.777Z,101094.34
2023-07-08T18:37:01.941Z,101105.41
2023-07-08T18:39:43.657Z,101083.34
2023-07-08T18:42:14.933Z,101102.50
2023-07-08T18:44:48.263Z,101101.56
2023-07-08T18:47:19.847Z,101103.16
2023-07-08T18:49:50.745Z,101106.44
2023-07-08T18:52:23.976Z,101103.63
2023-07-08T18:54:54.832Z,101105.97
2023-07-08T18:57:25.654Z,101094.34
2023-07-08T18:59:59.473Z,101107.22
2023-07-08T19:02:43.184Z,101100.88
2023-07-08T19:05:38.198Z,101100.69
2023-07-08T19:08:12.023Z,101113.53
2023-07-08T19:10:44.651Z,101104.63
2023-07-08T19:13:20.232Z,101103.59
2023-07-08T19:15:51.684Z,101101.75
2023-07-08T19:18:24.069Z,101104.03
2023-07-08T19:20:54.936Z,101103.69
2023-07-08T19:23:30.048Z,101108.69
2023-07-08T19:26:03.980Z,101112.00
2023-07-08T19:28:34.987Z,101110.22
2023-07-08T19:31:06.549Z,101110.09
2023-07-08T19:33:39.799Z,101117.78
2023-07-08T19:36:12.453Z,101119.38
2023-07-08T19:38:49.725Z,101123.59
2023-07-08T19:41:31.053Z,101123.41
2023-07-08T19:44:08.926Z,101126.63
2023-07-08T19:46:40.155Z,101128.06
2023-07-08T19:49:13.024Z,101139.72
2023-07-08T19:51:43.719Z,101126.34
2023-07-08T19:54:17.799Z,101131.28
2023-07-08T19:56:48.631Z,101132.00
2023-07-08T19:59:19.233Z,101136.97
2023-07-08T20:01:49.831Z,101127.06
2023-07-08T20:04:21.064Z,101124.88
2023-07-08T20:06:51.767Z,101149.16
2023-07-08T20:09:30.798Z,101149.78
2023-07-08T20:12:01.408Z,101154.63
2023-07-08T20:14:33.054Z,101158.72
2023-07-08T20:17:03.894Z,101152.25
2023-07-08T20:19:39.281Z,101163.19
2023-07-08T20:22:31.326Z,101162.00
2023-07-08T20:25:05.661Z,101159.84
2023-07-08T20:27:37.000Z,101164.72
2023-07-08T20:30:38.554Z,101175.69
2023-07-08T20:33:09.351Z,101176.25
2023-07-08T20:35:42.188Z,101181.13
2023-07-08T20:38:17.259Z,101179.19
2023-07-08T20:40:52.093Z,101181.44
2023-07-08T20:43:24.790Z,101181.25
2023-07-08T20:45:58.467Z,101189.66
2023-07-08T20:48:30.075Z,101197.09
2023-07-08T20:51:02.194Z,101188.06
2023-07-08T20:53:38.915Z,101198.34
2023-07-08T20:56:36.348Z,101201.66
2023-07-08T20:59:07.521Z,101198.91
2023-07-08T21:01:38.357Z,101200.41
2023-07-08T21:04:09.122Z,101199.47
2023-07-08T21:06:40.461Z,101191.94
2023-07-08T21:09:16.245Z,101200.63
2023-07-08T21:11:49.488Z,101194.50
2023-07-08T21:14:23.440Z,101194.28
2023-07-08T21:16:55.050Z,101184.34
2023-07-08T21:19:26.258Z,101169.97
2023-07-08T21:21:56.808Z,101202.34
2023-07-08T21:24:34.017Z,101177.63
2023-07-08T21:27:08.619Z,101204.84
2023-07-08T21:29:41.914Z,101202.94
2023-07-08T21:32:15.153Z,101209.72
2023-07-08T21:34:48.930Z,101199.13
2023-07-08T21:37:19.267Z,101204.97
2023-07-08T21:39:55.183Z,101203.66
2023-07-08T21:42:29.948Z,101207.13
2023-07-08T21:45:00.673Z,101206.09
2023-07-08T21:47:33.119Z,101204.03
2023-07-08T21:50:05.902Z,101181.06
2023-07-08T21:52:44.146Z,101208.72
2023-07-08T21:55:18.568Z,101204.19
2023-07-08T21:57:54.889Z,101205.66
2023-07-08T22:00:26.191Z,101215.66
2023-07-08T22:03:15.334Z,101196.41
2023-07-08T22:05:46.593Z,101205.72
2023-07-08T22:08:21.474Z,101213.44
2023-07-08T22:10:55.107Z,101213.22
2023-07-08T22:13:31.798Z,101205.88
2023-07-08T22:16:07.681Z,101212.84
2023-07-08T22:18:42.890Z,101216.13
2023-07-08T22:21:21.139Z,101221.97
2023-07-08T22:23:52.185Z,101228.06
2023-07-08T22:26:25.354Z,101233.50
2023-07-08T22:29:00.218Z,101221.16
2023-07-08T22:31:34.058Z,101227.69
2023-07-08T22:34:21.762Z,101223.34
2023-07-08T22:36:53.107Z,101231.06
2023-07-08T22:39:23.719Z,101236.22
2023-07-08T22:41:57.878Z,101231.88
2023-07-08T22:44:35.830Z,101224.75
2023-07-08T22:47:10.283Z,101210.28
2023-07-08T22:49:41.360Z,101229.56
2023-07-08T22:52:22.375Z,101227.72
2023-07-08T22:54:53.069Z,101229.97
2023-07-08T22:57:23.708Z,101222.03
2023-07-08T22:59:56.930Z,101228.59
2023-07-08T23:02:27.596Z,101219.78
2023-07-08T23:04:59.176Z,101223.81
2023-07-08T23:07:32.925Z,101219.13
2023-07-08T23:10:05.562Z,101227.66
2023-07-08T23:12:40.483Z,101231.03
2023-07-08T23:15:14.835Z,101220.22
2023-07-08T23:17:47.598Z,101236.59
2023-07-08T23:20:20.657Z,101230.34
2023-07-08T23:22:51.863Z,101193.88
2023-07-08T23:25:28.832Z,101238.44
2023-07-08T23:28:00.887Z,101233.03
2023-07-08T23:30:41.814Z,101231.94
2023-07-08T23:33:18.133Z,101240.25
2023-07-08T23:35:49.787Z,101235.75
2023-07-08T23:38:20.899Z,101236.22
2023-07-08T23:40:54.717Z,101229.78
2023-07-08T23:43:25.126Z,101233.66
2023-07-08T23:45:58.617Z,101235.25
2023-07-08T23:48:31.333Z,101225.53
2023-07-08T23:51:02.121Z,101230.47
2023-07-08T23:53:33.218Z,101231.97
2023-07-08T23:56:06.325Z,101220.00
2023-07-08T23:58:44.715Z,101236.50
